sensor_id;sensor_type;location;lat;lon;timestamp;temperature;humidity
45685;DHT22;46836;48.388;16.210;2023-05-29T00:00:48;13.60;99.90
45685;DHT22;46836;48.388;16.210;2023-05-29T00:03:15;13.50;99.90
45685;DHT22;46836;48.388;16.210;2023-05-29T00:05:45;13.50;99.90
45685;DHT22;46836;48.388;16.210;2023-05-29T00:08:12;13.40;99.90
45685;DHT22;46836;48.388;16.210;2023-05-29T00:10:39;13.40;99.90
45685;DHT22;46836;48.388;16.210;2023-05-29T00:13:07;13.40;99.90
45685;DHT22;46836;48.388;16.210;2023-05-29T00:15:34;13.30;99.90
45685;DHT22;46836;48.388;16.210;2023-05-29T00:18:02;13.30;99.90
45685;DHT22;46836;48.388;16.210;2023-05-29T00:20:29;13.30;99.90
45685;DHT22;46836;48.388;16.210;2023-05-29T00:22:56;13.20;99.90
45685;DHT22;46836;48.388;16.210;2023-05-29T00:25:24;13.20;99.90
45685;DHT22;46836;48.388;16.210;2023-05-29T00:27:51;13.20;99.90
45685;DHT22;46836;48.388;16.210;2023-05-29T00:30:18;13.10;99.90
45685;DHT22;46836;48.388;16.210;2023-05-29T00:32:45;13.10;99.90
45685;DHT22;46836;48.388;16.210;2023-05-29T00:35:13;13.00;99.90
45685;DHT22;46836;48.388;16.210;2023-05-29T00:37:40;13.00;99.90
45685;DHT22;46836;48.388;16.210;2023-05-29T00:40:07;13.00;99.90
45685;DHT22;46836;48.388;16.210;2023-05-29T00:42:35;12.90;99.90
45685;DHT22;46836;48.388;16.210;2023-05-29T00:45:02;12.90;99.90
45685;DHT22;46836;48.388;16.210;2023-05-29T00:47:29;12.90;99.90
45685;DHT22;46836;48.388;16.210;2023-05-29T00:49:57;12.90;99.90
45685;DHT22;46836;48.388;16.210;2023-05-29T00:52:26;12.90;99.90
45685;DHT22;46836;48.388;16.210;2023-05-29T00:54:54;12.80;99.90
45685;DHT22;46836;48.388;16.210;2023-05-29T00:57:23;12.70;99.90
45685;DHT22;46836;48.388;16.210;2023-05-29T00:59:51;12.70;99.90
45685;DHT22;46836;48.388;16.210;2023-05-29T01:02:20;12.60;99.90
45685;DHT22;46836;48.388;16.210;2023-05-29T01:04:48;12.60;99.90
45685;DHT22;46836;48.388;16.210;2023-05-29T01:07:15;12.60;99.90
45685;DHT22;46836;48.388;16.210;2023-05-29T01:09:42;12.60;99.90
45685;DHT22;46836;48.388;16.210;2023-05-29T01:18:08;12.60;99.90
45685;DHT22;46836;48.388;16.210;2023-05-29T01:21:01;12.60;99.90
45685;DHT22;46836;48.388;16.210;2023-05-29T01:29:00;12.50;99.90
45685;DHT22;46836;48.388;16.210;2023-05-29T01:31:28;12.50;99.90
45685;DHT22;46836;48.388;16.210;2023-05-29T01:33:58;12.50;99.90
45685;DHT22;46836;48.388;16.210;2023-05-29T01:36:27;12.40;99.90
45685;DHT22;46836;48.388;16.210;2023-05-29T01:38:57;12.40;99.90
45685;DHT22;46836;48.388;16.210;2023-05-29T01:41:24;12.40;99.90
45685;DHT22;46836;48.388;16.210;2023-05-29T01:43:52;12.40;99.90
45685;DHT22;46836;48.388;16.210;2023-05-29T01:46:20;12.30;99.90
45685;DHT22;46836;48.388;16.210;2023-05-29T01:48:48;12.30;99.90
45685;DHT22;46836;48.388;16.210;2023-05-29T01:51:16;12.20;99.90
45685;DHT22;46836;48.388;16.210;2023-05-29T01:53:43;12.20;99.90
45685;DHT22;46836;48.388;16.210;2023-05-29T01:56:11;12.20;99.90
45685;DHT22;46836;48.388;16.210;2023-05-29T01:58:40;12.20;99.90
45685;DHT22;46836;48.388;16.210;2023-05-29T02:01:08;12.10;99.90
45685;DHT22;46836;48.388;16.210;2023-05-29T02:03:35;12.20;99.90
45685;DHT22;46836;48.388;16.210;2023-05-29T02:06:02;12.10;99.90
45685;DHT22;46836;48.388;16.210;2023-05-29T02:08:30;12.10;99.90
45685;DHT22;46836;48.388;16.210;2023-05-29T02:10:57;12.00;99.90
45685;DHT22;46836;48.388;16.210;2023-05-29T02:13:24;12.00;99.90
45685;DHT22;46836;48.388;16.210;2023-05-29T02:15:51;12.00;99.90
45685;DHT22;46836;48.388;16.210;2023-05-29T02:18:18;11.90;99.90
45685;DHT22;46836;48.388;16.210;2023-05-29T02:20:46;11.90;99.90
45685;DHT22;46836;48.388;16.210;2023-05-29T02:23:13;11.90;99.90
45685;DHT22;46836;48.388;16.210;2023-05-29T02:25:42;11.80;99.90
45685;DHT22;46836;48.388;16.210;2023-05-29T02:28:10;11.80;99.90
45685;DHT22;46836;48.388;16.210;2023-05-29T02:30:37;11.80;99.90
45685;DHT22;46836;48.388;16.210;2023-05-29T02:33:04;11.80;99.90
45685;DHT22;46836;48.388;16.210;2023-05-29T02:35:31;11.80;99.90
45685;DHT22;46836;48.388;16.210;2023-05-29T02:37:58;11.80;99.90
45685;DHT22;46836;48.388;16.210;2023-05-29T02:40:25;11.80;99.90
45685;DHT22;46836;48.388;16.210;2023-05-29T02:42:52;11.70;99.90
45685;DHT22;46836;48.388;16.210;2023-05-29T02:45:20;11.70;99.90
45685;DHT22;46836;48.388;16.210;2023-05-29T02:47:47;11.70;99.90
45685;DHT22;46836;48.388;16.210;2023-05-29T02:50:14;11.60;99.90
45685;DHT22;46836;48.388;16.210;2023-05-29T02:52:42;11.60;99.90
45685;DHT22;46836;48.388;16.210;2023-05-29T02:55:09;11.60;99.90
45685;DHT22;46836;48.388;16.210;2023-05-29T02:57:36;11.60;99.90
45685;DHT22;46836;48.388;16.210;2023-05-29T03:00:03;11.60;99.90
45685;DHT22;46836;48.388;16.210;2023-05-29T03:02:35;11.50;99.90
45685;DHT22;46836;48.388;16.210;2023-05-29T03:05:03;11.50;99.90
45685;DHT22;46836;48.388;16.210;2023-05-29T03:07:30;11.50;99.90
45685;DHT22;46836;48.388;16.210;2023-05-29T03:09:57;11.50;99.90
45685;DHT22;46836;48.388;16.210;2023-05-29T03:12:26;11.50;99.90
45685;DHT22;46836;48.388;16.210;2023-05-29T03:14:54;11.50;99.90
45685;DHT22;46836;48.388;16.210;2023-05-29T03:17:23;11.50;99.90
45685;DHT22;46836;48.388;16.210;2023-05-29T03:19:50;11.50;99.90
45685;DHT22;46836;48.388;16.210;2023-05-29T03:22:18;11.60;99.90
45685;DHT22;46836;48.388;16.210;2023-05-29T03:24:45;11.60;99.90
45685;DHT22;46836;48.388;16.210;2023-05-29T03:27:12;11.60;99.90
45685;DHT22;46836;48.388;16.210;2023-05-29T03:29:39;11.60;99.90
45685;DHT22;46836;48.388;16.210;2023-05-29T03:32:06;11.60;99.90
45685;DHT22;46836;48.388;16.210;2023-05-29T03:34:33;11.60;99.90
45685;DHT22;46836;48.388;16.210;2023-05-29T03:37:00;11.60;99.90
45685;DHT22;46836;48.388;16.210;2023-05-29T03:39:28;11.60;99.90
45685;DHT22;46836;48.388;16.210;2023-05-29T03:41:56;11.60;99.90
45685;DHT22;46836;48.388;16.210;2023-05-29T03:44:23;11.60;99.90
45685;DHT22;46836;48.388;16.210;2023-05-29T03:46:51;11.60;99.90
45685;DHT22;46836;48.388;16.210;2023-05-29T03:49:18;11.60;99.90
45685;DHT22;46836;48.388;16.210;2023-05-29T03:51:45;11.60;99.90
45685;DHT22;46836;48.388;16.210;2023-05-29T03:54:13;11.70;99.90
45685;DHT22;46836;48.388;16.210;2023-05-29T03:56:40;11.70;99.90
45685;DHT22;46836;48.388;16.210;2023-05-29T03:59:07;11.70;99.90
45685;DHT22;46836;48.388;16.210;2023-05-29T04:01:35;11.80;99.90
45685;DHT22;46836;48.388;16.210;2023-05-29T04:04:02;11.80;99.90
45685;DHT22;46836;48.388;16.210;2023-05-29T04:06:30;11.90;99.90
45685;DHT22;46836;48.388;16.210;2023-05-29T04:08:57;11.90;99.90
45685;DHT22;46836;48.388;16.210;2023-05-29T04:11:24;12.00;99.90
45685;DHT22;46836;48.388;16.210;2023-05-29T04:13:51;12.00;99.90
45685;DHT22;46836;48.388;16.210;2023-05-29T04:16:19;12.00;99.90
45685;DHT22;46836;48.388;16.210;2023-05-29T04:18:46;12.10;99.90
45685;DHT22;46836;48.388;16.210;2023-05-29T04:21:13;12.10;99.90
45685;DHT22;46836;48.388;16.210;2023-05-29T04:23:41;12.20;99.90
45685;DHT22;46836;48.388;16.210;2023-05-29T04:26:08;12.30;99.90
45685;DHT22;46836;48.388;16.210;2023-05-29T04:28:35;12.30;99.90
45685;DHT22;46836;48.388;16.210;2023-05-29T04:31:04;12.30;99.90
45685;DHT22;46836;48.388;16.210;2023-05-29T04:33:32;12.40;99.90
45685;DHT22;46836;48.388;16.210;2023-05-29T04:35:59;12.40;99.90
45685;DHT22;46836;48.388;16.210;2023-05-29T04:38:28;12.50;99.90
45685;DHT22;46836;48.388;16.210;2023-05-29T04:40:56;12.50;99.90
45685;DHT22;46836;48.388;16.210;2023-05-29T04:43:25;12.50;99.90
45685;DHT22;46836;48.388;16.210;2023-05-29T04:45:56;12.60;99.90
45685;DHT22;46836;48.388;16.210;2023-05-29T04:48:23;12.60;99.90
45685;DHT22;46836;48.388;16.210;2023-05-29T04:50:52;12.70;99.90
45685;DHT22;46836;48.388;16.210;2023-05-29T04:53:19;12.70;99.90
45685;DHT22;46836;48.388;16.210;2023-05-29T04:55:46;12.80;99.90
45685;DHT22;46836;48.388;16.210;2023-05-29T04:58:13;12.90;99.90
45685;DHT22;46836;48.388;16.210;2023-05-29T05:00:40;13.00;99.90
45685;DHT22;46836;48.388;16.210;2023-05-29T05:03:07;13.00;99.90
45685;DHT22;46836;48.388;16.210;2023-05-29T05:05:36;13.10;99.90
45685;DHT22;46836;48.388;16.210;2023-05-29T05:08:03;13.20;99.90
45685;DHT22;46836;48.388;16.210;2023-05-29T05:10:30;13.40;99.90
45685;DHT22;46836;48.388;16.210;2023-05-29T05:12:57;13.50;99.90
45685;DHT22;46836;48.388;16.210;2023-05-29T05:15:25;13.60;99.90
45685;DHT22;46836;48.388;16.210;2023-05-29T05:17:52;13.70;99.90
45685;DHT22;46836;48.388;16.210;2023-05-29T05:20:19;13.80;99.90
45685;DHT22;46836;48.388;16.210;2023-05-29T05:22:47;13.90;99.90
45685;DHT22;46836;48.388;16.210;2023-05-29T05:25:14;13.90;99.90
45685;DHT22;46836;48.388;16.210;2023-05-29T05:27:41;13.90;99.90
45685;DHT22;46836;48.388;16.210;2023-05-29T05:30:08;14.00;99.90
45685;DHT22;46836;48.388;16.210;2023-05-29T05:32:36;14.10;99.90
45685;DHT22;46836;48.388;16.210;2023-05-29T05:35:04;14.10;99.90
45685;DHT22;46836;48.388;16.210;2023-05-29T05:37:31;14.10;99.90
45685;DHT22;46836;48.388;16.210;2023-05-29T05:39:58;14.10;99.90
45685;DHT22;46836;48.388;16.210;2023-05-29T05:42:27;14.10;99.90
45685;DHT22;46836;48.388;16.210;2023-05-29T05:44:54;14.10;99.90
45685;DHT22;46836;48.388;16.210;2023-05-29T05:47:21;14.10;99.90
45685;DHT22;46836;48.388;16.210;2023-05-29T05:49:48;14.20;99.90
45685;DHT22;46836;48.388;16.210;2023-05-29T05:52:17;14.20;99.90
45685;DHT22;46836;48.388;16.210;2023-05-29T05:54:44;14.30;99.90
45685;DHT22;46836;48.388;16.210;2023-05-29T05:57:12;14.40;99.90
45685;DHT22;46836;48.388;16.210;2023-05-29T05:59:39;14.40;99.90
45685;DHT22;46836;48.388;16.210;2023-05-29T06:02:06;14.50;99.90
45685;DHT22;46836;48.388;16.210;2023-05-29T06:04:35;14.50;99.90
45685;DHT22;46836;48.388;16.210;2023-05-29T06:07:02;14.60;99.90
45685;DHT22;46836;48.388;16.210;2023-05-29T06:09:29;14.70;99.90
45685;DHT22;46836;48.388;16.210;2023-05-29T06:11:57;14.70;99.90
45685;DHT22;46836;48.388;16.210;2023-05-29T06:14:24;14.80;99.90
45685;DHT22;46836;48.388;16.210;2023-05-29T06:16:51;14.80;99.90
45685;DHT22;46836;48.388;16.210;2023-05-29T06:19:19;15.00;99.90
45685;DHT22;46836;48.388;16.210;2023-05-29T06:21:46;15.00;99.90
45685;DHT22;46836;48.388;16.210;2023-05-29T06:24:13;15.10;99.90
45685;DHT22;46836;48.388;16.210;2023-05-29T06:26:40;15.20;99.90
45685;DHT22;46836;48.388;16.210;2023-05-29T06:29:08;15.20;99.90
45685;DHT22;46836;48.388;16.210;2023-05-29T06:31:35;15.30;99.90
45685;DHT22;46836;48.388;16.210;2023-05-29T06:34:02;15.40;99.90
45685;DHT22;46836;48.388;16.210;2023-05-29T06:36:29;15.50;99.90
45685;DHT22;46836;48.388;16.210;2023-05-29T06:38:58;15.50;99.90
45685;DHT22;46836;48.388;16.210;2023-05-29T06:41:25;15.60;99.90
45685;DHT22;46836;48.388;16.210;2023-05-29T06:43:52;15.80;99.90
45685;DHT22;46836;48.388;16.210;2023-05-29T06:46:19;15.80;99.90
45685;DHT22;46836;48.388;16.210;2023-05-29T06:48:46;16.00;99.90
45685;DHT22;46836;48.388;16.210;2023-05-29T06:51:13;16.10;99.90
45685;DHT22;46836;48.388;16.210;2023-05-29T06:53:41;16.10;99.90
45685;DHT22;46836;48.388;16.210;2023-05-29T06:56:08;16.10;99.90
45685;DHT22;46836;48.388;16.210;2023-05-29T06:58:36;16.20;99.90
45685;DHT22;46836;48.388;16.210;2023-05-29T07:01:03;16.30;99.90
45685;DHT22;46836;48.388;16.210;2023-05-29T07:03:34;16.40;99.90
45685;DHT22;46836;48.388;16.210;2023-05-29T07:06:03;16.50;99.90
45685;DHT22;46836;48.388;16.210;2023-05-29T07:08:31;16.60;99.90
45685;DHT22;46836;48.388;16.210;2023-05-29T07:10:58;16.70;99.90
45685;DHT22;46836;48.388;16.210;2023-05-29T07:13:25;16.80;99.90
45685;DHT22;46836;48.388;16.210;2023-05-29T07:15:53;16.90;99.90
45685;DHT22;46836;48.388;16.210;2023-05-29T07:18:21;17.00;99.90
45685;DHT22;46836;48.388;16.210;2023-05-29T07:20:49;17.10;99.90
45685;DHT22;46836;48.388;16.210;2023-05-29T07:23:17;17.20;99.90
45685;DHT22;46836;48.388;16.210;2023-05-29T07:25:44;17.20;99.90
45685;DHT22;46836;48.388;16.210;2023-05-29T07:28:11;17.30;99.90
45685;DHT22;46836;48.388;16.210;2023-05-29T07:30:48;17.40;99.90
45685;DHT22;46836;48.388;16.210;2023-05-29T07:33:15;17.60;99.90
45685;DHT22;46836;48.388;16.210;2023-05-29T07:35:42;17.70;99.90
45685;DHT22;46836;48.388;16.210;2023-05-29T07:38:10;17.80;99.90
45685;DHT22;46836;48.388;16.210;2023-05-29T07:40:37;17.90;99.90
45685;DHT22;46836;48.388;16.210;2023-05-29T07:43:08;18.10;99.90
45685;DHT22;46836;48.388;16.210;2023-05-29T07:45:35;18.10;99.90
45685;DHT22;46836;48.388;16.210;2023-05-29T07:48:02;18.30;99.90
45685;DHT22;46836;48.388;16.210;2023-05-29T07:50:29;18.40;99.90
45685;DHT22;46836;48.388;16.210;2023-05-29T07:52:56;18.50;99.90
45685;DHT22;46836;48.388;16.210;2023-05-29T07:55:23;18.70;99.90
45685;DHT22;46836;48.388;16.210;2023-05-29T07:57:51;18.80;99.90
45685;DHT22;46836;48.388;16.210;2023-05-29T08:00:18;19.00;99.90
45685;DHT22;46836;48.388;16.210;2023-05-29T08:02:45;19.00;99.90
45685;DHT22;46836;48.388;16.210;2023-05-29T08:05:13;19.00;99.90
45685;DHT22;46836;48.388;16.210;2023-05-29T08:07:40;19.10;99.90
45685;DHT22;46836;48.388;16.210;2023-05-29T08:10:08;19.20;99.90
45685;DHT22;46836;48.388;16.210;2023-05-29T08:12:35;19.30;99.90
45685;DHT22;46836;48.388;16.210;2023-05-29T08:15:03;19.40;99.90
45685;DHT22;46836;48.388;16.210;2023-05-29T08:17:30;19.50;99.90
45685;DHT22;46836;48.388;16.210;2023-05-29T08:19:57;19.60;99.90
45685;DHT22;46836;48.388;16.210;2023-05-29T08:22:28;19.70;99.90
45685;DHT22;46836;48.388;16.210;2023-05-29T08:24:56;19.90;99.90
45685;DHT22;46836;48.388;16.210;2023-05-29T08:27:23;20.00;99.90
45685;DHT22;46836;48.388;16.210;2023-05-29T08:29:50;20.20;99.90
45685;DHT22;46836;48.388;16.210;2023-05-29T08:32:18;20.20;99.90
45685;DHT22;46836;48.388;16.210;2023-05-29T08:34:45;20.30;99.90
45685;DHT22;46836;48.388;16.210;2023-05-29T08:37:12;20.40;99.90
45685;DHT22;46836;48.388;16.210;2023-05-29T08:39:40;20.50;99.90
45685;DHT22;46836;48.388;16.210;2023-05-29T08:42:12;20.60;99.90
45685;DHT22;46836;48.388;16.210;2023-05-29T08:44:40;20.70;99.90
45685;DHT22;46836;48.388;16.210;2023-05-29T08:47:07;20.80;99.90
45685;DHT22;46836;48.388;16.210;2023-05-29T08:49:51;20.80;99.90
45685;DHT22;46836;48.388;16.210;2023-05-29T08:52:22;20.90;99.90
45685;DHT22;46836;48.388;16.210;2023-05-29T08:54:50;21.10;99.90
45685;DHT22;46836;48.388;16.210;2023-05-29T08:57:18;21.20;99.90
45685;DHT22;46836;48.388;16.210;2023-05-29T08:59:45;21.40;99.90
45685;DHT22;46836;48.388;16.210;2023-05-29T09:02:13;21.50;99.90
45685;DHT22;46836;48.388;16.210;2023-05-29T09:04:42;21.50;99.90
45685;DHT22;46836;48.388;16.210;2023-05-29T09:07:16;21.40;99.90
45685;DHT22;46836;48.388;16.210;2023-05-29T09:09:46;21.60;99.90
45685;DHT22;46836;48.388;16.210;2023-05-29T09:12:14;21.50;99.90
45685;DHT22;46836;48.388;16.210;2023-05-29T09:14:43;21.50;99.90
45685;DHT22;46836;48.388;16.210;2023-05-29T09:17:12;21.60;99.90
45685;DHT22;46836;48.388;16.210;2023-05-29T09:19:40;21.60;99.90
45685;DHT22;46836;48.388;16.210;2023-05-29T09:22:12;21.80;99.90
45685;DHT22;46836;48.388;16.210;2023-05-29T09:24:46;21.80;99.90
45685;DHT22;46836;48.388;16.210;2023-05-29T09:27:14;21.90;99.90
45685;DHT22;46836;48.388;16.210;2023-05-29T09:29:43;22.00;99.90
45685;DHT22;46836;48.388;16.210;2023-05-29T09:32:18;22.20;99.90
45685;DHT22;46836;48.388;16.210;2023-05-29T09:34:45;22.10;99.90
45685;DHT22;46836;48.388;16.210;2023-05-29T09:37:13;22.20;99.90
45685;DHT22;46836;48.388;16.210;2023-05-29T09:39:45;22.30;99.90
45685;DHT22;46836;48.388;16.210;2023-05-29T09:42:16;22.30;99.90
45685;DHT22;46836;48.388;16.210;2023-05-29T09:44:45;22.40;99.90
45685;DHT22;46836;48.388;16.210;2023-05-29T09:47:16;22.60;99.90
45685;DHT22;46836;48.388;16.210;2023-05-29T09:49:45;22.80;99.90
45685;DHT22;46836;48.388;16.210;2023-05-29T09:52:14;22.90;98.30
45685;DHT22;46836;48.388;16.210;2023-05-29T09:54:43;22.90;97.00
45685;DHT22;46836;48.388;16.210;2023-05-29T09:57:14;23.00;97.10
45685;DHT22;46836;48.388;16.210;2023-05-29T09:59:44;23.10;98.40
45685;DHT22;46836;48.388;16.210;2023-05-29T10:02:12;23.10;96.40
45685;DHT22;46836;48.388;16.210;2023-05-29T10:04:40;23.10;96.50
45685;DHT22;46836;48.388;16.210;2023-05-29T10:07:15;23.10;96.50
45685;DHT22;46836;48.388;16.210;2023-05-29T10:09:45;23.10;96.60
45685;DHT22;46836;48.388;16.210;2023-05-29T10:12:17;23.20;96.90
45685;DHT22;46836;48.388;16.210;2023-05-29T10:14:49;23.20;95.90
45685;DHT22;46836;48.388;16.210;2023-05-29T10:17:24;23.30;97.00
45685;DHT22;46836;48.388;16.210;2023-05-29T10:19:53;23.30;95.40
45685;DHT22;46836;48.388;16.210;2023-05-29T10:22:22;23.40;97.10
45685;DHT22;46836;48.388;16.210;2023-05-29T10:24:51;23.50;93.70
45685;DHT22;46836;48.388;16.210;2023-05-29T10:27:19;23.60;96.50
45685;DHT22;46836;48.388;16.210;2023-05-29T10:29:51;23.70;95.60
45685;DHT22;46836;48.388;16.210;2023-05-29T10:32:23;23.70;93.00
45685;DHT22;46836;48.388;16.210;2023-05-29T10:40:15;23.90;93.20
45685;DHT22;46836;48.388;16.210;2023-05-29T10:50:37;24.00;92.70
45685;DHT22;46836;48.388;16.210;2023-05-29T10:53:09;23.80;93.40
45685;DHT22;46836;48.388;16.210;2023-05-29T10:55:38;23.90;93.10
45685;DHT22;46836;48.388;16.210;2023-05-29T10:58:18;23.90;93.90
45685;DHT22;46836;48.388;16.210;2023-05-29T11:00:47;23.80;91.30
45685;DHT22;46836;48.388;16.210;2023-05-29T11:03:22;23.90;93.20
45685;DHT22;46836;48.388;16.210;2023-05-29T11:06:04;24.10;93.90
45685;DHT22;46836;48.388;16.210;2023-05-29T11:08:55;24.20;92.20
45685;DHT22;46836;48.388;16.210;2023-05-29T11:11:32;24.30;92.30
45685;DHT22;46836;48.388;16.210;2023-05-29T11:14:06;24.30;91.40
45685;DHT22;46836;48.388;16.210;2023-05-29T11:19:08;24.10;92.00
45685;DHT22;46836;48.388;16.210;2023-05-29T11:24:26;24.30;91.10
45685;DHT22;46836;48.388;16.210;2023-05-29T11:26:55;24.10;89.30
45685;DHT22;46836;48.388;16.210;2023-05-29T11:29:32;24.20;90.40
45685;DHT22;46836;48.388;16.210;2023-05-29T11:32:02;24.20;89.20
45685;DHT22;46836;48.388;16.210;2023-05-29T11:34:31;24.50;90.50
45685;DHT22;46836;48.388;16.210;2023-05-29T11:37:02;24.70;90.40
45685;DHT22;46836;48.388;16.210;2023-05-29T11:39:30;24.70;90.00
45685;DHT22;46836;48.388;16.210;2023-05-29T11:42:00;24.70;90.30
45685;DHT22;46836;48.388;16.210;2023-05-29T11:44:27;24.80;88.90
45685;DHT22;46836;48.388;16.210;2023-05-29T11:47:05;24.90;90.70
45685;DHT22;46836;48.388;16.210;2023-05-29T11:49:34;24.90;85.70
45685;DHT22;46836;48.388;16.210;2023-05-29T11:52:14;25.00;85.40
45685;DHT22;46836;48.388;16.210;2023-05-29T11:54:44;24.90;86.20
45685;DHT22;46836;48.388;16.210;2023-05-29T11:57:19;24.90;87.60
45685;DHT22;46836;48.388;16.210;2023-05-29T11:59:51;25.00;88.50
45685;DHT22;46836;48.388;16.210;2023-05-29T12:02:26;25.00;89.50
45685;DHT22;46836;48.388;16.210;2023-05-29T12:05:05;25.10;87.30
45685;DHT22;46836;48.388;16.210;2023-05-29T12:07:35;25.10;86.20
45685;DHT22;46836;48.388;16.210;2023-05-29T12:10:12;25.20;87.40
45685;DHT22;46836;48.388;16.210;2023-05-29T12:12:40;25.20;81.10
45685;DHT22;46836;48.388;16.210;2023-05-29T12:15:08;25.00;81.60
45685;DHT22;46836;48.388;16.210;2023-05-29T12:17:36;25.00;81.90
45685;DHT22;46836;48.388;16.210;2023-05-29T12:20:04;25.00;80.50
45685;DHT22;46836;48.388;16.210;2023-05-29T12:22:35;25.00;82.30
45685;DHT22;46836;48.388;16.210;2023-05-29T12:25:06;25.10;83.80
45685;DHT22;46836;48.388;16.210;2023-05-29T12:27:34;25.30;80.80
45685;DHT22;46836;48.388;16.210;2023-05-29T12:32:54;25.20;80.30
45685;DHT22;46836;48.388;16.210;2023-05-29T12:35:27;25.10;80.00
45685;DHT22;46836;48.388;16.210;2023-05-29T12:38:01;25.20;82.00
45685;DHT22;46836;48.388;16.210;2023-05-29T12:40:31;25.00;80.70
45685;DHT22;46836;48.388;16.210;2023-05-29T12:43:03;25.00;79.80
45685;DHT22;46836;48.388;16.210;2023-05-29T12:45:32;25.10;79.90
45685;DHT22;46836;48.388;16.210;2023-05-29T12:48:01;25.20;79.10
45685;DHT22;46836;48.388;16.210;2023-05-29T12:50:30;25.10;78.90
45685;DHT22;46836;48.388;16.210;2023-05-29T12:53:01;25.20;79.30
45685;DHT22;46836;48.388;16.210;2023-05-29T12:55:40;25.10;79.20
45685;DHT22;46836;48.388;16.210;2023-05-29T12:58:09;25.10;80.50
45685;DHT22;46836;48.388;16.210;2023-05-29T13:00:41;25.30;80.30
45685;DHT22;46836;48.388;16.210;2023-05-29T13:03:09;25.30;79.10
45685;DHT22;46836;48.388;16.210;2023-05-29T13:05:39;25.20;80.20
45685;DHT22;46836;48.388;16.210;2023-05-29T13:08:07;25.20;81.90
45685;DHT22;46836;48.388;16.210;2023-05-29T13:10:35;25.30;80.60
45685;DHT22;46836;48.388;16.210;2023-05-29T13:13:02;25.40;76.40
45685;DHT22;46836;48.388;16.210;2023-05-29T13:15:30;25.50;77.80
45685;DHT22;46836;48.388;16.210;2023-05-29T13:18:00;25.60;77.70
45685;DHT22;46836;48.388;16.210;2023-05-29T13:20:27;25.80;76.00
45685;DHT22;46836;48.388;16.210;2023-05-29T13:22:55;26.00;75.20
45685;DHT22;46836;48.388;16.210;2023-05-29T13:25:22;25.80;73.40
45685;DHT22;46836;48.388;16.210;2023-05-29T13:27:51;25.80;75.90
45685;DHT22;46836;48.388;16.210;2023-05-29T13:30:19;25.70;75.70
45685;DHT22;46836;48.388;16.210;2023-05-29T13:32:47;25.60;75.90
45685;DHT22;46836;48.388;16.210;2023-05-29T13:35:14;25.60;75.20
45685;DHT22;46836;48.388;16.210;2023-05-29T13:37:41;25.60;72.60
45685;DHT22;46836;48.388;16.210;2023-05-29T13:40:10;25.60;72.60
45685;DHT22;46836;48.388;16.210;2023-05-29T13:42:38;25.50;72.10
45685;DHT22;46836;48.388;16.210;2023-05-29T13:45:07;25.60;75.50
45685;DHT22;46836;48.388;16.210;2023-05-29T13:47:35;25.70;71.90
45685;DHT22;46836;48.388;16.210;2023-05-29T13:50:03;25.70;74.00
45685;DHT22;46836;48.388;16.210;2023-05-29T13:52:30;25.70;73.80
45685;DHT22;46836;48.388;16.210;2023-05-29T13:54:58;25.70;73.20
45685;DHT22;46836;48.388;16.210;2023-05-29T13:57:27;25.80;72.20
45685;DHT22;46836;48.388;16.210;2023-05-29T13:59:54;25.90;72.80
45685;DHT22;46836;48.388;16.210;2023-05-29T14:02:22;26.00;71.10
45685;DHT22;46836;48.388;16.210;2023-05-29T14:04:49;25.90;69.00
45685;DHT22;46836;48.388;16.210;2023-05-29T14:07:17;26.10;72.60
45685;DHT22;46836;48.388;16.210;2023-05-29T14:09:44;25.90;70.20
45685;DHT22;46836;48.388;16.210;2023-05-29T14:12:11;25.80;72.00
45685;DHT22;46836;48.388;16.210;2023-05-29T14:14:38;25.80;71.90
45685;DHT22;46836;48.388;16.210;2023-05-29T14:17:06;26.00;75.40
45685;DHT22;46836;48.388;16.210;2023-05-29T14:19:33;26.00;74.30
45685;DHT22;46836;48.388;16.210;2023-05-29T14:22:00;26.00;73.90
45685;DHT22;46836;48.388;16.210;2023-05-29T14:24:27;26.10;74.40
45685;DHT22;46836;48.388;16.210;2023-05-29T14:26:55;26.20;74.80
45685;DHT22;46836;48.388;16.210;2023-05-29T14:29:22;26.20;75.90
45685;DHT22;46836;48.388;16.210;2023-05-29T14:31:49;26.00;73.20
45685;DHT22;46836;48.388;16.210;2023-05-29T14:34:16;26.00;74.80
45685;DHT22;46836;48.388;16.210;2023-05-29T14:36:43;26.00;74.70
45685;DHT22;46836;48.388;16.210;2023-05-29T14:39:11;26.10;75.00
45685;DHT22;46836;48.388;16.210;2023-05-29T14:41:41;26.10;75.20
45685;DHT22;46836;48.388;16.210;2023-05-29T14:44:09;26.10;73.90
45685;DHT22;46836;48.388;16.210;2023-05-29T14:46:38;26.10;73.00
45685;DHT22;46836;48.388;16.210;2023-05-29T14:49:05;25.90;72.10
45685;DHT22;46836;48.388;16.210;2023-05-29T14:51:32;25.80;73.80
45685;DHT22;46836;48.388;16.210;2023-05-29T14:54:00;26.00;74.00
45685;DHT22;46836;48.388;16.210;2023-05-29T14:56:27;25.90;74.40
45685;DHT22;46836;48.388;16.210;2023-05-29T14:58:55;26.00;74.50
45685;DHT22;46836;48.388;16.210;2023-05-29T15:01:22;26.20;74.60
45685;DHT22;46836;48.388;16.210;2023-05-29T15:03:49;25.90;73.80
45685;DHT22;46836;48.388;16.210;2023-05-29T15:06:17;26.00;74.00
45685;DHT22;46836;48.388;16.210;2023-05-29T15:08:44;26.00;74.70
45685;DHT22;46836;48.388;16.210;2023-05-29T15:11:12;26.00;74.40
45685;DHT22;46836;48.388;16.210;2023-05-29T15:13:39;26.00;76.10
45685;DHT22;46836;48.388;16.210;2023-05-29T15:16:07;26.20;76.40
45685;DHT22;46836;48.388;16.210;2023-05-29T15:18:34;26.10;75.30
45685;DHT22;46836;48.388;16.210;2023-05-29T15:21:03;26.30;75.20
45685;DHT22;46836;48.388;16.210;2023-05-29T15:23:30;26.20;72.60
45685;DHT22;46836;48.388;16.210;2023-05-29T15:25:57;26.10;74.70
45685;DHT22;46836;48.388;16.210;2023-05-29T15:28:24;26.20;74.50
45685;DHT22;46836;48.388;16.210;2023-05-29T15:30:51;26.10;72.80
45685;DHT22;46836;48.388;16.210;2023-05-29T15:33:19;26.10;71.80
45685;DHT22;46836;48.388;16.210;2023-05-29T15:35:46;25.90;71.60
45685;DHT22;46836;48.388;16.210;2023-05-29T15:38:14;25.80;70.60
45685;DHT22;46836;48.388;16.210;2023-05-29T15:40:42;25.70;72.70
45685;DHT22;46836;48.388;16.210;2023-05-29T15:43:09;25.80;72.70
45685;DHT22;46836;48.388;16.210;2023-05-29T15:45:37;25.80;73.50
45685;DHT22;46836;48.388;16.210;2023-05-29T15:48:04;25.90;74.20
45685;DHT22;46836;48.388;16.210;2023-05-29T15:50:32;25.90;75.10
45685;DHT22;46836;48.388;16.210;2023-05-29T15:52:59;25.80;74.50
45685;DHT22;46836;48.388;16.210;2023-05-29T15:55:26;25.90;73.80